sensor_id;sensor_type;location;lat;lon;timestamp;pressure;altitude;pressure_sealevel;temperature;humidity
17936;BME280;9093;52.062;4.508;2023-02-16T00:00:20;102657.59;;;7.51;70.76
17936;BME280;9093;52.062;4.508;2023-02-16T00:03:01;102657.63;;;7.50;70.71
17936;BME280;9093;52.062;4.508;2023-02-16T00:05:42;102657.63;;;7.47;70.71
17936;BME280;9093;52.062;4.508;2023-02-16T00:08:22;102652.34;;;7.45;70.77
17936;BME280;9093;52.062;4.508;2023-02-16T00:11:03;102655.91;;;7.44;70.81
17936;BME280;9093;52.062;4.508;2023-02-16T00:14:02;102655.03;;;7.42;70.77
17936;BME280;9093;52.062;4.508;2023-02-16T00:16:43;102650.63;;;7.41;70.94
17936;BME280;9093;52.062;4.508;2023-02-16T00:19:29;102649.72;;;7.41;70.94
17936;BME280;9093;52.062;4.508;2023-02-16T00:22:12;102653.31;;;7.38;70.96
17936;BME280;9093;52.062;4.508;2023-02-16T00:24:52;102650.66;;;7.40;70.77
17936;BME280;9093;52.062;4.508;2023-02-16T00:27:33;102648.91;;;7.37;70.89
17936;BME280;9093;52.062;4.508;2023-02-16T00:30:16;102644.47;;;7.38;71.18
17936;BME280;9093;52.062;4.508;2023-02-16T00:32:58;102648.91;;;7.37;70.84
17936;BME280;9093;52.062;4.508;2023-02-16T00:35:39;102650.69;;;7.35;71.23
17936;BME280;9093;52.062;4.508;2023-02-16T00:38:19;102650.69;;;7.35;70.91
17936;BME280;9093;52.062;4.508;2023-02-16T00:41:00;102648.03;;;7.37;71.19
17936;BME280;9093;52.062;4.508;2023-02-16T00:43:40;102641.84;;;7.35;71.09
17936;BME280;9093;52.062;4.508;2023-02-16T00:46:20;102638.28;;;7.36;71.17
17936;BME280;9093;52.062;4.508;2023-02-16T00:49:01;102638.34;;;7.33;71.28
17936;BME280;9093;52.062;4.508;2023-02-16T00:51:42;102638.34;;;7.31;71.28
17936;BME280;9093;52.062;4.508;2023-02-16T00:54:22;102631.25;;;7.32;71.07
17936;BME280;9093;52.062;4.508;2023-02-16T00:57:02;102633.91;;;7.33;70.99
17936;BME280;9093;52.062;4.508;2023-02-16T00:59:43;102644.50;;;7.35;71.02
17936;BME280;9093;52.062;4.508;2023-02-16T01:02:24;102635.63;;;7.36;70.99
17936;BME280;9093;52.062;4.508;2023-02-16T01:05:04;102636.50;;;7.36;71.22
17936;BME280;9093;52.062;4.508;2023-02-16T01:07:45;102629.41;;;7.38;71.19
17936;BME280;9093;52.062;4.508;2023-02-16T01:10:44;102624.09;;;7.40;71.43
17936;BME280;9093;52.062;4.508;2023-02-16T01:13:47;102625.81;;;7.41;71.44
17936;BME280;9093;52.062;4.508;2023-02-16T01:16:39;102628.47;;;7.41;71.24
17936;BME280;9093;52.062;4.508;2023-02-16T01:19:20;102634.66;;;7.43;71.56
17936;BME280;9093;52.062;4.508;2023-02-16T01:22:00;102626.69;;;7.43;71.62
17936;BME280;9093;52.062;4.508;2023-02-16T01:24:40;102625.81;;;7.42;71.46
17936;BME280;9093;52.062;4.508;2023-02-16T01:27:20;102625.78;;;7.44;71.57
17936;BME280;9093;52.062;4.508;2023-02-16T01:30:01;102623.13;;;7.44;71.54
17936;BME280;9093;52.062;4.508;2023-02-16T01:32:41;102624.91;;;7.43;71.58
17936;BME280;9093;52.062;4.508;2023-02-16T01:35:30;102625.81;;;7.42;71.47
17936;BME280;9093;52.062;4.508;2023-02-16T01:38:32;102623.16;;;7.41;71.82
17936;BME280;9093;52.062;4.508;2023-02-16T01:44:18;102628.44;;;7.44;71.50
17936;BME280;9093;52.062;4.508;2023-02-16T01:47:06;102618.72;;;7.43;71.62
17936;BME280;9093;52.062;4.508;2023-02-16T01:49:50;102624.91;;;7.45;71.68
17936;BME280;9093;52.062;4.508;2023-02-16T01:55:19;102616.88;;;7.46;71.54
17936;BME280;9093;52.062;4.508;2023-02-16T01:58:05;102612.44;;;7.47;71.82
17936;BME280;9093;52.062;4.508;2023-02-16T02:03:36;102615.09;;;7.47;71.81
17936;BME280;9093;52.062;4.508;2023-02-16T02:06:34;102617.75;;;7.47;71.61
17936;BME280;9093;52.062;4.508;2023-02-16T02:09:20;102610.72;;;7.46;71.77
17936;BME280;9093;52.062;4.508;2023-02-16T02:12:13;102614.22;;;7.46;71.83
17936;BME280;9093;52.062;4.508;2023-02-16T02:14:56;102600.97;;;7.45;71.83
17936;BME280;9093;52.062;4.508;2023-02-16T02:17:36;102607.13;;;7.47;71.72
17936;BME280;9093;52.062;4.508;2023-02-16T02:23:31;102606.28;;;7.45;71.76
17936;BME280;9093;52.062;4.508;2023-02-16T02:29:31;102584.97;;;7.48;71.76
17936;BME280;9093;52.062;4.508;2023-02-16T02:32:28;102575.22;;;7.50;72.04
17936;BME280;9093;52.062;4.508;2023-02-16T02:38:37;102570.78;;;7.50;71.97
17936;BME280;9093;52.062;4.508;2023-02-16T02:41:27;102561.91;;;7.51;71.82
17936;BME280;9093;52.062;4.508;2023-02-16T02:44:29;102563.63;;;7.54;71.83
17936;BME280;9093;52.062;4.508;2023-02-16T02:47:10;102566.28;;;7.54;72.24
17936;BME280;9093;52.062;4.508;2023-02-16T02:49:52;102560.94;;;7.57;72.20
17936;BME280;9093;52.062;4.508;2023-02-16T02:52:33;102560.94;;;7.57;71.95
17936;BME280;9093;52.062;4.508;2023-02-16T02:55:13;102561.81;;;7.57;72.11
17936;BME280;9093;52.062;4.508;2023-02-16T02:58:14;102560.00;;;7.59;72.07
17936;BME280;9093;52.062;4.508;2023-02-16T03:01:17;102564.44;;;7.59;72.15
17936;BME280;9093;52.062;4.508;2023-02-16T03:03:58;102550.25;;;7.60;72.24
17936;BME280;9093;52.062;4.508;2023-02-16T03:06:43;102557.31;;;7.61;72.00
17936;BME280;9093;52.062;4.508;2023-02-16T03:09:25;102549.34;;;7.61;72.13
17936;BME280;9093;52.062;4.508;2023-02-16T03:12:07;102557.31;;;7.64;72.14
17936;BME280;9093;52.062;4.508;2023-02-16T03:15:07;102553.75;;;7.65;72.11
17936;BME280;9093;52.062;4.508;2023-02-16T03:17:50;102542.22;;;7.64;72.14
17936;BME280;9093;52.062;4.508;2023-02-16T03:20:51;102544.00;;;7.64;71.86
17936;BME280;9093;52.062;4.508;2023-02-16T03:23:50;102547.50;;;7.66;72.14
17936;BME280;9093;52.062;4.508;2023-02-16T03:26:50;102543.94;;;7.67;71.99
17936;BME280;9093;52.062;4.508;2023-02-16T03:29:50;102548.38;;;7.68;72.11
17936;BME280;9093;52.062;4.508;2023-02-16T03:32:30;102556.31;;;7.71;71.96
17936;BME280;9093;52.062;4.508;2023-02-16T03:35:11;102551.84;;;7.73;72.20
17936;BME280;9093;52.062;4.508;2023-02-16T03:37:52;102560.66;;;7.75;72.18
17936;BME280;9093;52.062;4.508;2023-02-16T03:40:33;102558.88;;;7.77;72.13
17936;BME280;9093;52.062;4.508;2023-02-16T03:43:14;102546.41;;;7.79;71.88
17936;BME280;9093;52.062;4.508;2023-02-16T03:45:54;102546.41;;;7.81;72.02
17936;BME280;9093;52.062;4.508;2023-02-16T03:48:35;102534.00;;;7.81;72.29
17936;BME280;9093;52.062;4.508;2023-02-16T03:51:15;102529.53;;;7.83;72.12
17936;BME280;9093;52.062;4.508;2023-02-16T03:53:55;102535.69;;;7.85;72.39
17936;BME280;9093;52.062;4.508;2023-02-16T03:56:36;102533.94;;;7.84;72.25
17936;BME280;9093;52.062;4.508;2023-02-16T03:59:16;102539.22;;;7.87;72.16
17936;BME280;9093;52.062;4.508;2023-02-16T04:01:59;102541.88;;;7.86;72.08
17936;BME280;9093;52.062;4.508;2023-02-16T04:04:39;102550.72;;;7.88;72.09
17936;BME280;9093;52.062;4.508;2023-02-16T04:07:19;102552.50;;;7.89;72.26
17936;BME280;9093;52.062;4.508;2023-02-16T04:10:00;102546.28;;;7.90;72.02
17936;BME280;9093;52.062;4.508;2023-02-16T04:12:40;102536.47;;;7.90;72.18
17936;BME280;9093;52.062;4.508;2023-02-16T04:15:22;102554.22;;;7.91;72.23
17936;BME280;9093;52.062;4.508;2023-02-16T04:18:03;102550.66;;;7.92;72.16
17936;BME280;9093;52.062;4.508;2023-02-16T04:20:44;102552.41;;;7.93;72.04
17936;BME280;9093;52.062;4.508;2023-02-16T04:23:24;102553.28;;;7.95;72.28
17936;BME280;9093;52.062;4.508;2023-02-16T04:26:04;102550.56;;;7.97;72.14
17936;BME280;9093;52.062;4.508;2023-02-16T04:28:45;102546.13;;;7.97;72.11
17936;BME280;9093;52.062;4.508;2023-02-16T04:31:25;102542.56;;;7.98;72.23
17936;BME280;9093;52.062;4.508;2023-02-16T04:34:05;102539.91;;;8.00;72.09
17936;BME280;9093;52.062;4.508;2023-02-16T04:36:46;102543.44;;;8.00;72.09
17936;BME280;9093;52.062;4.508;2023-02-16T04:39:26;102544.31;;;8.02;72.10
17936;BME280;9093;52.062;4.508;2023-02-16T04:42:06;102542.47;;;8.04;72.09
17936;BME280;9093;52.062;4.508;2023-02-16T04:44:47;102538.06;;;8.03;72.23
17936;BME280;9093;52.062;4.508;2023-02-16T04:47:27;102537.16;;;8.04;72.09
17936;BME280;9093;52.062;4.508;2023-02-16T04:50:08;102532.72;;;8.05;72.30
17936;BME280;9093;52.062;4.508;2023-02-16T04:52:48;102532.69;;;8.06;72.14
17936;BME280;9093;52.062;4.508;2023-02-16T04:55:29;102531.78;;;8.07;72.07
17936;BME280;9093;52.062;4.508;2023-02-16T04:58:10;102527.31;;;8.09;72.05
17936;BME280;9093;52.062;4.508;2023-02-16T05:00:50;102517.59;;;8.08;72.07
17936;BME280;9093;52.062;4.508;2023-02-16T05:03:30;102519.38;;;8.08;72.36
17936;BME280;9093;52.062;4.508;2023-02-16T05:06:11;102516.66;;;8.09;72.30
17936;BME280;9093;52.062;4.508;2023-02-16T05:08:51;102523.78;;;8.09;72.16
17936;BME280;9093;52.062;4.508;2023-02-16T05:11:32;102524.66;;;8.09;72.13
17936;BME280;9093;52.062;4.508;2023-02-16T05:14:33;102529.97;;;8.09;72.06
17936;BME280;9093;52.062;4.508;2023-02-16T05:17:26;102527.28;;;8.11;72.07
17936;BME280;9093;52.062;4.508;2023-02-16T05:20:07;102520.19;;;8.12;72.33
17936;BME280;9093;52.062;4.508;2023-02-16T05:22:47;102517.53;;;8.12;72.41
17936;BME280;9093;52.062;4.508;2023-02-16T05:25:27;102519.28;;;8.13;72.09
17936;BME280;9093;52.062;4.508;2023-02-16T05:28:11;102521.94;;;8.14;72.27
17936;BME280;9093;52.062;4.508;2023-02-16T05:30:52;102521.88;;;8.17;72.17
17936;BME280;9093;52.062;4.508;2023-02-16T05:33:33;102521.88;;;8.17;72.21
17936;BME280;9093;52.062;4.508;2023-02-16T05:36:13;102521.81;;;8.20;72.04
17936;BME280;9093;52.062;4.508;2023-02-16T05:38:54;102526.19;;;8.23;72.48
17936;BME280;9093;52.062;4.508;2023-02-16T05:41:35;102527.06;;;8.25;72.31
17936;BME280;9093;52.062;4.508;2023-02-16T05:44:15;102519.97;;;8.25;72.45
17936;BME280;9093;52.062;4.508;2023-02-16T05:46:56;102511.06;;;8.26;72.10
17936;BME280;9093;52.062;4.508;2023-02-16T05:49:36;102508.41;;;8.28;72.31
17936;BME280;9093;52.062;4.508;2023-02-16T05:52:16;102497.69;;;8.29;72.43
17936;BME280;9093;52.062;4.508;2023-02-16T05:54:57;102513.72;;;8.28;72.44
17936;BME280;9093;52.062;4.508;2023-02-16T05:57:38;102521.69;;;8.28;72.32
17936;BME280;9093;52.062;4.508;2023-02-16T06:00:22;102520.78;;;8.30;72.27
17936;BME280;9093;52.062;4.508;2023-02-16T06:03:03;102526.97;;;8.31;72.32
17936;BME280;9093;52.062;4.508;2023-02-16T06:05:51;102519.03;;;8.28;72.32
17936;BME280;9093;52.062;4.508;2023-02-16T06:08:35;102515.44;;;8.29;72.34
17936;BME280;9093;52.062;4.508;2023-02-16T06:11:16;102513.72;;;8.28;72.46
17936;BME280;9093;52.062;4.508;2023-02-16T06:14:16;102519.06;;;8.26;72.54
17936;BME280;9093;52.062;4.508;2023-02-16T06:16:57;102535.91;;;8.27;72.54
17936;BME280;9093;52.062;4.508;2023-02-16T06:19:41;102532.34;;;8.26;72.33
17936;BME280;9093;52.062;4.508;2023-02-16T06:22:21;102516.41;;;8.26;72.41
17936;BME280;9093;52.062;4.508;2023-02-16T06:25:05;102521.72;;;8.26;72.41
17936;BME280;9093;52.062;4.508;2023-02-16T06:27:46;102535.03;;;8.25;72.49
17936;BME280;9093;52.062;4.508;2023-02-16T06:30:27;102526.19;;;8.23;72.30
17936;BME280;9093;52.062;4.508;2023-02-16T06:33:08;102526.19;;;8.23;72.25
17936;BME280;9093;52.062;4.508;2023-02-16T06:35:49;102533.28;;;8.24;72.41
17936;BME280;9093;52.062;4.508;2023-02-16T06:38:30;102533.28;;;8.24;72.43
17936;BME280;9093;52.062;4.508;2023-02-16T06:41:11;102541.28;;;8.22;72.51
17936;BME280;9093;52.062;4.508;2023-02-16T06:43:52;102543.91;;;8.24;72.40
17936;BME280;9093;52.062;4.508;2023-02-16T06:46:33;102542.16;;;8.23;72.45
17936;BME280;9093;52.062;4.508;2023-02-16T06:49:18;102539.50;;;8.23;72.74
17936;BME280;9093;52.062;4.508;2023-02-16T06:51:59;102537.72;;;8.23;72.55
17936;BME280;9093;52.062;4.508;2023-02-16T06:54:39;102545.69;;;8.25;72.47
17936;BME280;9093;52.062;4.508;2023-02-16T06:57:19;102547.44;;;8.26;72.61
17936;BME280;9093;52.062;4.508;2023-02-16T06:59:59;102548.31;;;8.26;72.64
17936;BME280;9093;52.062;4.508;2023-02-16T07:02:40;102550.97;;;8.28;72.74
17936;BME280;9093;52.062;4.508;2023-02-16T07:05:22;102554.47;;;8.30;72.55
17936;BME280;9093;52.062;4.508;2023-02-16T07:08:03;102553.56;;;8.34;72.77
17936;BME280;9093;52.062;4.508;2023-02-16T07:10:45;102558.00;;;8.33;72.48
17936;BME280;9093;52.062;4.508;2023-02-16T07:13:25;102556.22;;;8.34;72.65
17936;BME280;9093;52.062;4.508;2023-02-16T07:16:06;102556.16;;;8.37;72.70
17936;BME280;9093;52.062;4.508;2023-02-16T07:18:46;102550.81;;;8.38;72.61
17936;BME280;9093;52.062;4.508;2023-02-16T07:21:27;102558.72;;;8.41;72.71
17936;BME280;9093;52.062;4.508;2023-02-16T07:24:07;102554.25;;;8.43;72.81
17936;BME280;9093;52.062;4.508;2023-02-16T07:26:47;102560.44;;;8.47;72.75
17936;BME280;9093;52.062;4.508;2023-02-16T07:29:28;102570.16;;;8.48;72.78
17936;BME280;9093;52.062;4.508;2023-02-16T07:32:08;102573.66;;;8.50;72.58
17936;BME280;9093;52.062;4.508;2023-02-16T07:34:48;102570.09;;;8.51;72.87
17936;BME280;9093;52.062;4.508;2023-02-16T07:37:29;102572.69;;;8.54;73.01
17936;BME280;9093;52.062;4.508;2023-02-16T07:40:10;102575.31;;;8.57;72.87
17936;BME280;9093;52.062;4.508;2023-02-16T07:42:50;102576.19;;;8.59;72.87
17936;BME280;9093;52.062;4.508;2023-02-16T07:45:31;102580.56;;;8.60;72.99
17936;BME280;9093;52.062;4.508;2023-02-16T07:48:15;102584.09;;;8.62;73.02
17936;BME280;9093;52.062;4.508;2023-02-16T07:50:55;102585.78;;;8.66;72.75
17936;BME280;9093;52.062;4.508;2023-02-16T07:53:35;102590.22;;;8.67;72.83
17936;BME280;9093;52.062;4.508;2023-02-16T07:56:27;102591.06;;;8.69;72.81
17936;BME280;9093;52.062;4.508;2023-02-16T07:59:08;102595.47;;;8.72;72.67
17936;BME280;9093;52.062;4.508;2023-02-16T08:01:48;102607.84;;;8.73;72.85
17936;BME280;9093;52.062;4.508;2023-02-16T08:04:28;102600.81;;;8.72;72.86
17936;BME280;9093;52.062;4.508;2023-02-16T08:07:12;102600.81;;;8.72;72.97
17936;BME280;9093;52.062;4.508;2023-02-16T08:09:53;102601.72;;;8.69;73.09
17936;BME280;9093;52.062;4.508;2023-02-16T08:12:33;102600.91;;;8.66;72.81
17936;BME280;9093;52.062;4.508;2023-02-16T08:15:13;102599.16;;;8.65;73.06
17936;BME280;9093;52.062;4.508;2023-02-16T08:17:53;102603.63;;;8.61;72.88
17936;BME280;9093;52.062;4.508;2023-02-16T08:20:34;102611.69;;;8.58;73.08
17936;BME280;9093;52.062;4.508;2023-02-16T08:23:14;102614.38;;;8.57;72.78
17936;BME280;9093;52.062;4.508;2023-02-16T08:25:55;102606.50;;;8.51;73.05
17936;BME280;9093;52.062;4.508;2023-02-16T08:28:38;102602.09;;;8.48;73.10
17936;BME280;9093;52.062;4.508;2023-02-16T08:31:27;102613.63;;;8.48;73.16
17936;BME280;9093;52.062;4.508;2023-02-16T08:34:15;102611.91;;;8.46;73.15
17936;BME280;9093;52.062;4.508;2023-02-16T08:36:56;102615.47;;;8.45;73.52
17936;BME280;9093;52.062;4.508;2023-02-16T08:39:36;102614.59;;;8.44;73.36
17936;BME280;9093;52.062;4.508;2023-02-16T08:42:17;102616.34;;;8.45;73.61
17936;BME280;9093;52.062;4.508;2023-02-16T08:44:57;102605.63;;;8.48;73.62
17936;BME280;9093;52.062;4.508;2023-02-16T08:47:38;102610.03;;;8.53;73.67
17936;BME280;9093;52.062;4.508;2023-02-16T08:50:18;102607.28;;;8.56;73.52
17936;BME280;9093;52.062;4.508;2023-02-16T08:52:58;102596.53;;;8.60;73.73
17936;BME280;9093;52.062;4.508;2023-02-16T08:55:41;102604.41;;;8.68;73.75
17936;BME280;9093;52.062;4.508;2023-02-16T08:58:22;102602.50;;;8.74;73.67
17936;BME280;9093;52.062;4.508;2023-02-16T09:01:04;102600.69;;;8.78;73.68
17936;BME280;9093;52.062;4.508;2023-02-16T09:03:45;102599.72;;;8.80;73.74
17936;BME280;9093;52.062;4.508;2023-02-16T09:06:25;102605.03;;;8.82;73.76
17936;BME280;9093;52.062;4.508;2023-02-16T09:09:06;102604.19;;;8.80;73.83
17936;BME280;9093;52.062;4.508;2023-02-16T09:11:48;102596.16;;;8.81;74.08
17936;BME280;9093;52.062;4.508;2023-02-16T09:14:28;102606.78;;;8.84;73.88
17936;BME280;9093;52.062;4.508;2023-02-16T09:17:08;102612.06;;;8.86;73.92
17936;BME280;9093;52.062;4.508;2023-02-16T09:19:49;102608.50;;;8.85;74.01
17936;BME280;9093;52.062;4.508;2023-02-16T09:22:29;102613.81;;;8.87;73.96
17936;BME280;9093;52.062;4.508;2023-02-16T09:25:10;102613.78;;;8.88;73.84
17936;BME280;9093;52.062;4.508;2023-02-16T09:27:50;102601.34;;;8.91;74.09
17936;BME280;9093;52.062;4.508;2023-02-16T09:30:32;102597.69;;;8.95;74.12
17936;BME280;9093;52.062;4.508;2023-02-16T09:33:13;102602.88;;;9.02;73.93
17936;BME280;9093;52.062;4.508;2023-02-16T09:35:54;102599.13;;;9.11;74.06
17936;BME280;9093;52.062;4.508;2023-02-16T09:38:34;102595.41;;;9.21;73.98
17936;BME280;9093;52.062;4.508;2023-02-16T09:47:25;102576.13;;;9.50;74.06
17936;BME280;9093;52.062;4.508;2023-02-16T09:50:22;102577.72;;;9.58;74.35
17936;BME280;9093;52.062;4.508;2023-02-16T09:53:11;102587.34;;;9.65;74.42
17936;BME280;9093;52.062;4.508;2023-02-16T09:56:28;102585.44;;;9.71;74.33
17936;BME280;9093;52.062;4.508;2023-02-16T09:59:13;102586.16;;;9.79;74.51
17936;BME280;9093;52.062;4.508;2023-02-16T10:05:10;102589.59;;;9.84;74.37
17936;BME280;9093;52.062;4.508;2023-02-16T10:13:44;102579.38;;;10.01;74.57
17936;BME280;9093;52.062;4.508;2023-02-16T10:16:37;102565.91;;;10.07;74.60
17936;BME280;9093;52.062;4.508;2023-02-16T10:19:25;102571.09;;;10.13;74.54
17936;BME280;9093;52.062;4.508;2023-02-16T10:22:12;102568.28;;;10.19;74.72
17936;BME280;9093;52.062;4.508;2023-02-16T10:25:20;102573.47;;;10.25;74.70
17936;BME280;9093;52.062;4.508;2023-02-16T10:28:12;102567.03;;;10.34;74.69
17936;BME280;9093;52.062;4.508;2023-02-16T10:31:01;102566.00;;;10.39;74.70
17936;BME280;9093;52.062;4.508;2023-02-16T10:33:54;102568.56;;;10.44;74.77
17936;BME280;9093;52.062;4.508;2023-02-16T10:37:04;102569.38;;;10.47;74.68
17936;BME280;9093;52.062;4.508;2023-02-16T10:42:54;102569.81;;;10.63;75.03
17936;BME280;9093;52.062;4.508;2023-02-16T10:45:52;102563.44;;;10.69;74.91
17936;BME280;9093;52.062;4.508;2023-02-16T10:48:34;102566.78;;;10.77;74.88
17936;BME280;9093;52.062;4.508;2023-02-16T10:51:15;102577.31;;;10.83;74.73
17936;BME280;9093;52.062;4.508;2023-02-16T10:54:02;102580.72;;;10.88;75.02
17936;BME280;9093;52.062;4.508;2023-02-16T11:02:56;102574.91;;;11.06;74.94
17936;BME280;9093;52.062;4.508;2023-02-16T11:05:36;102565.91;;;11.09;75.06
17936;BME280;9093;52.062;4.508;2023-02-16T11:08:17;102562.44;;;11.05;75.07
17936;BME280;9093;52.062;4.508;2023-02-16T11:11:07;102560.75;;;11.01;75.22
17936;BME280;9093;52.062;4.508;2023-02-16T11:13:49;102558.84;;;11.06;75.02
17936;BME280;9093;52.062;4.508;2023-02-16T11:16:36;102559.63;;;11.10;75.22
17936;BME280;9093;52.062;4.508;2023-02-16T11:19:20;102557.69;;;11.15;75.33
17936;BME280;9093;52.062;4.508;2023-02-16T11:22:01;102544.19;;;11.19;75.56
17936;BME280;9093;52.062;4.508;2023-02-16T11:24:41;102545.69;;;11.29;75.30
17936;BME280;9093;52.062;4.508;2023-02-16T11:27:23;102554.38;;;11.38;75.38
17936;BME280;9093;52.062;4.508;2023-02-16T11:30:16;102545.31;;;11.42;75.30
17936;BME280;9093;52.062;4.508;2023-02-16T11:33:20;102547.16;;;11.40;75.37
17936;BME280;9093;52.062;4.508;2023-02-16T11:36:01;102539.84;;;11.45;75.37
17936;BME280;9093;52.062;4.508;2023-02-16T11:38:56;102548.72;;;11.47;75.71
17936;BME280;9093;52.062;4.508;2023-02-16T11:41:43;102532.59;;;11.50;75.45
17936;BME280;9093;52.062;4.508;2023-02-16T11:44:31;102538.66;;;11.55;75.65
17936;BME280;9093;52.062;4.508;2023-02-16T11:56:09;102517.81;;;11.66;75.44
17936;BME280;9093;52.062;4.508;2023-02-16T11:59:03;102515.03;;;11.69;75.43
17936;BME280;9093;52.062;4.508;2023-02-16T12:04:58;102492.41;;;11.81;75.42
17936;BME280;9093;52.062;4.508;2023-02-16T12:08:26;102488.63;;;11.86;75.54
17936;BME280;9093;52.062;4.508;2023-02-16T12:11:43;102484.72;;;11.96;75.25
17936;BME280;9093;52.062;4.508;2023-02-16T12:26:47;102472.47;;;12.16;74.98
17936;BME280;9093;52.062;4.508;2023-02-16T12:29:45;102471.22;;;12.26;74.98
17936;BME280;9093;52.062;4.508;2023-02-16T12:32:52;102467.81;;;12.21;75.13
17936;BME280;9093;52.062;4.508;2023-02-16T12:35:40;102466.75;;;12.26;75.45
17936;BME280;9093;52.062;4.508;2023-02-16T12:41:33;102472.53;;;12.39;75.17
17936;BME280;9093;52.062;4.508;2023-02-16T12:44:36;102475.06;;;12.43;75.20
17936;BME280;9093;52.062;4.508;2023-02-16T12:47:36;102460.59;;;12.47;75.11
17936;BME280;9093;52.062;4.508;2023-02-16T12:50:26;102459.50;;;12.53;75.08
17936;BME280;9093;52.062;4.508;2023-02-16T12:53:24;102459.50;;;12.53;74.93
17936;BME280;9093;52.062;4.508;2023-02-16T12:56:13;102451.56;;;12.52;74.68
17936;BME280;9093;52.062;4.508;2023-02-16T12:59:53;102461.47;;;12.48;74.66
17936;BME280;9093;52.062;4.508;2023-02-16T13:02:41;102440.19;;;12.45;74.70
17936;BME280;9093;52.062;4.508;2023-02-16T13:05:30;102426.59;;;12.49;74.09
17936;BME280;9093;52.062;4.508;2023-02-16T13:08:19;102417.56;;;12.52;74.35
17936;BME280;9093;52.062;4.508;2023-02-16T13:11:10;102418.28;;;12.57;74.15
17936;BME280;9093;52.062;4.508;2023-02-16T13:13:58;102407.44;;;12.60;74.11
17936;BME280;9093;52.062;4.508;2023-02-16T13:16:45;102398.38;;;12.64;74.07
17936;BME280;9093;52.062;4.508;2023-02-16T13:19:27;102408.97;;;12.67;73.97
17936;BME280;9093;52.062;4.508;2023-02-16T13:22:18;102404.38;;;12.71;73.84
17936;BME280;9093;52.062;4.508;2023-02-16T13:25:16;102413.34;;;12.70;73.80
17936;BME280;9093;52.062;4.508;2023-02-16T13:37:16;102387.75;;;12.61;73.52
17936;BME280;9093;52.062;4.508;2023-02-16T13:42:52;102379.78;;;12.60;73.38
17936;BME280;9093;52.062;4.508;2023-02-16T13:45:38;102375.28;;;12.60;73.43
17936;BME280;9093;52.062;4.508;2023-02-16T13:48:26;102370.94;;;12.58;73.30
17936;BME280;9093;52.062;4.508;2023-02-16T13:51:19;102364.56;;;12.60;73.28
17936;BME280;9093;52.062;4.508;2023-02-16T13:54:02;102370.63;;;12.65;73.36
17936;BME280;9093;52.062;4.508;2023-02-16T13:56:42;102360.13;;;12.59;73.57
17936;BME280;9093;52.062;4.508;2023-02-16T14:02:10;102356.44;;;12.63;73.29
17936;BME280;9093;52.062;4.508;2023-02-16T14:07:37;102344.53;;;12.70;73.12
17936;BME280;9093;52.062;4.508;2023-02-16T14:19:18;102329.34;;;12.71;72.90
17936;BME280;9093;52.062;4.508;2023-02-16T14:22:09;102330.28;;;12.70;72.74
17936;BME280;9093;52.062;4.508;2023-02-16T14:24:53;102336.56;;;12.69;72.56
17936;BME280;9093;52.062;4.508;2023-02-16T14:27:44;102335.91;;;12.62;72.59
17936;BME280;9093;52.062;4.508;2023-02-16T14:30:30;102334.16;;;12.61;72.52
17936;BME280;9093;52.062;4.508;2023-02-16T14:47:03;102343.34;;;12.07;72.49
17936;BME280;9093;52.062;4.508;2023-02-16T14:50:11;102340.13;;;11.98;72.40
17936;BME280;9093;52.062;4.508;2023-02-16T14:56:13;102338.75;;;11.86;72.58
17936;BME280;9093;52.062;4.508;2023-02-16T14:59:05;102344.28;;;11.82;72.71
17936;BME280;9093;52.062;4.508;2023-02-16T15:01:51;102339.06;;;11.77;72.64
17936;BME280;9093;52.062;4.508;2023-02-16T15:04:32;102328.50;;;11.74;72.80
17936;BME280;9093;52.062;4.508;2023-02-16T15:07:14;102330.28;;;11.72;73.19
17936;BME280;9093;52.062;4.508;2023-02-16T15:09:56;102330.34;;;11.70;72.93
17936;BME280;9093;52.062;4.508;2023-02-16T15:12:38;102327.88;;;11.64;73.00
17936;BME280;9093;52.062;4.508;2023-02-16T15:15:25;102327.13;;;11.61;73.06
17936;BME280;9093;52.062;4.508;2023-02-16T15:18:14;102330.00;;;11.55;73.23
17936;BME280;9093;52.062;4.508;2023-02-16T15:20:56;102330.22;;;11.49;73.25
17936;BME280;9093;52.062;4.508;2023-02-16T15:23:50;102325.09;;;11.43;73.40
17936;BME280;9093;52.062;4.508;2023-02-16T15:26:33;102329.59;;;11.41;73.45
17936;BME280;9093;52.062;4.508;2023-02-16T15:29:23;102335.06;;;11.38;73.44
17936;BME280;9093;52.062;4.508;2023-02-16T15:32:06;102330.69;;;11.35;73.52
17936;BME280;9093;52.062;4.508;2023-02-16T15:34:48;102338.75;;;11.34;73.84
17936;BME280;9093;52.062;4.508;2023-02-16T15:37:30;102326.28;;;11.33;73.66
17936;BME280;9093;52.062;4.508;2023-02-16T15:40:24;102331.97;;;11.23;73.53
17936;BME280;9093;52.062;4.508;2023-02-16T15:43:17;102333.81;;;11.21;73.69
17936;BME280;9093;52.062;4.508;2023-02-16T15:46:05;102333.94;;;11.18;73.60
17936;BME280;9093;52.062;4.508;2023-02-16T15:48:45;102334.88;;;11.16;73.68
17936;BME280;9093;52.062;4.508;2023-02-16T15:51:32;102330.50;;;11.13;73.81
17936;BME280;9093;52.062;4.508;2023-02-16T15:54:22;102332.41;;;11.10;73.99
17936;BME280;9093;52.062;4.508;2023-02-16T15:57:11;102330.69;;;11.07;74.10
17936;BME280;9093;52.062;4.508;2023-02-16T15:59:57;102327.22;;;11.05;73.93
17936;BME280;9093;52.062;4.508;2023-02-16T16:02:40;102323.78;;;11.00;74.22
17936;BME280;9093;52.062;4.508;2023-02-16T16:08:02;102320.50;;;10.92;74.42
17936;BME280;9093;52.062;4.508;2023-02-16T16:10:43;102320.59;;;10.89;74.45
17936;BME280;9093;52.062;4.508;2023-02-16T16:13:28;102319.78;;;10.87;74.52
17936;BME280;9093;52.062;4.508;2023-02-16T16:16:09;102324.19;;;10.88;74.50
17936;BME280;9093;52.062;4.508;2023-02-16T16:18:51;102316.44;;;10.80;74.71
17936;BME280;9093;52.062;4.508;2023-02-16T16:21:32;102317.41;;;10.78;74.83
17936;BME280;9093;52.062;4.508;2023-02-16T16:27:10;102317.47;;;10.75;74.93
17936;BME280;9093;52.062;4.508;2023-02-16T16:29:50;102314.06;;;10.70;75.06
17936;BME280;9093;52.062;4.508;2023-02-16T16:32:31;102312.31;;;10.69;75.16
17936;BME280;9093;52.062;4.508;2023-02-16T16:35:37;102310.69;;;10.65;75.31
17936;BME280;9093;52.062;4.508;2023-02-16T16:38:32;102307.16;;;10.63;75.31
17936;BME280;9093;52.062;4.508;2023-02-16T16:41:26;102303.69;;;10.61;75.39